createdAt,value
2023-07-11T12:11:31.638Z,35.58
2023-07-11T12:14:22.073Z,35.45
2023-07-11T12:16:51.920Z,35.96
2023-07-11T12:19:32.646Z,35.71
2023-07-11T12:22:06.091Z,35.92
2023-07-11T12:24:56.874Z,35.82
2023-07-11T12:27:58.326Z,35.78
2023-07-11T12:30:55.961Z,36.08
2023-07-11T12:33:35.421Z,36.46
2023-07-11T12:36:46.068Z,36.36
2023-07-11T12:39:28.138Z,36.29
2023-07-11T12:42:01.380Z,36.90
2023-07-11T12:44:30.915Z,37.06
2023-07-11T12:47:06.860Z,36.98
2023-07-11T12:49:35.722Z,36.79
2023-07-11T12:52:09.948Z,36.76
2023-07-11T12:54:38.210Z,37.27
2023-07-11T12:57:11.596Z,37.63
2023-07-11T12:59:40.355Z,37.84
2023-07-11T13:02:10.695Z,37.47
2023-07-11T13:04:40.262Z,37.40
2023-07-11T13:07:14.339Z,37.42
2023-07-11T13:09:44.730Z,37.92
2023-07-11T13:12:20.883Z,37.88
2023-07-11T13:14:50.529Z,38.13
2023-07-11T13:17:22.891Z,37.57
2023-07-11T13:19:54.301Z,37.50
2023-07-11T13:22:23.229Z,37.30
2023-07-11T13:24:51.596Z,37.52
2023-07-11T13:27:22.211Z,37.07
2023-07-11T13:29:53.794Z,36.94
2023-07-11T13:32:25.649Z,36.97
2023-07-11T13:34:56.990Z,37.29
2023-07-11T13:37:30.604Z,37.73
2023-07-11T13:39:59.824Z,37.36
2023-07-11T13:42:29.521Z,37.03
2023-07-11T13:44:59.175Z,37.43
2023-07-11T13:47:35.148Z,37.36
2023-07-11T13:50:13.229Z,37.30
2023-07-11T13:52:44.098Z,37.50
2023-07-11T13:55:16.080Z,37.62
2023-07-11T13:57:46.940Z,37.98
2023-07-11T14:00:16.988Z,38.03
2023-07-11T14:02:47.474Z,37.68
2023-07-11T14:05:24.015Z,37.54
2023-07-11T14:07:54.359Z,36.88
2023-07-11T14:10:25.911Z,36.57
2023-07-11T14:12:55.041Z,36.42
2023-07-11T14:15:25.652Z,36.06
2023-07-11T14:17:59.466Z,36.26
2023-07-11T14:20:29.757Z,36.75
2023-07-11T14:23:02.681Z,36.52
2023-07-11T14:25:32.098Z,35.65
2023-07-11T14:28:00.820Z,35.45
2023-07-11T14:30:30.431Z,35.55
2023-07-11T14:33:00.289Z,35.35
2023-07-11T14:35:29.524Z,35.29
2023-07-11T14:37:57.884Z,35.35
2023-07-11T14:40:28.140Z,35.46
2023-07-11T14:42:56.448Z,35.57
2023-07-11T14:45:26.112Z,36.14
2023-07-11T14:47:55.222Z,36.47
2023-07-11T14:50:27.468Z,36.98
2023-07-11T14:52:56.368Z,37.47
2023-07-11T14:57:58.792Z,37.35
2023-07-11T15:00:28.920Z,37.54
2023-07-11T15:02:57.395Z,37.21
2023-07-11T15:10:31.423Z,35.33
2023-07-11T15:15:33.311Z,34.74
2023-07-11T15:18:01.863Z,34.32
2023-07-11T15:20:31.507Z,34.31
2023-07-11T15:23:00.963Z,34.09
2023-07-11T15:25:31.771Z,33.84
2023-07-11T15:28:00.342Z,33.58
2023-07-11T15:30:29.476Z,33.55
2023-07-11T15:32:58.315Z,33.34
2023-07-11T15:35:29.718Z,33.01
2023-07-11T15:38:02.495Z,32.60
2023-07-11T15:40:32.331Z,32.51
2023-07-11T15:43:03.258Z,32.37
2023-07-11T15:45:33.236Z,32.07
2023-07-11T15:48:01.432Z,31.82
2023-07-11T15:50:30.623Z,31.88
2023-07-11T15:53:01.296Z,32.03
2023-07-11T15:55:32.590Z,32.16
2023-07-11T15:58:00.841Z,32.11
2023-07-11T16:00:30.617Z,32.10
2023-07-11T16:02:59.266Z,32.00
2023-07-11T16:05:31.675Z,31.60
2023-07-11T16:08:01.338Z,31.51
2023-07-11T16:10:32.068Z,31.35
2023-07-11T16:13:00.809Z,31.26
2023-07-11T16:15:31.406Z,31.29
2023-07-11T16:17:59.934Z,31.29
2023-07-11T16:20:30.788Z,30.96
2023-07-11T16:22:59.088Z,30.98
2023-07-11T16:25:29.833Z,31.02
2023-07-11T16:28:00.021Z,31.00
2023-07-11T16:30:29.792Z,30.60
2023-07-11T16:32:59.184Z,29.99
2023-07-11T16:35:34.692Z,29.40
2023-07-11T16:38:04.516Z,29.20
2023-07-11T16:40:34.621Z,29.65
2023-07-11T16:43:02.852Z,30.14
2023-07-11T16:45:33.592Z,30.31
2023-07-11T16:48:02.001Z,30.56
2023-07-11T16:50:31.132Z,30.35
2023-07-11T16:53:00.937Z,30.05
2023-07-11T16:55:29.840Z,29.49
2023-07-11T16:57:59.440Z,29.23
2023-07-11T17:00:29.326Z,29.98
2023-07-11T17:02:58.779Z,30.28
2023-07-11T17:05:29.050Z,30.03
2023-07-11T17:07:58.854Z,29.90
2023-07-11T17:10:28.967Z,30.15
2023-07-11T17:13:01.812Z,30.47
2023-07-11T17:15:33.284Z,31.34
2023-07-11T17:18:07.039Z,31.63
2023-07-11T17:20:38.709Z,31.78
2023-07-11T17:23:13.685Z,31.69
2023-07-11T17:25:45.151Z,30.97
2023-07-11T17:28:21.525Z,30.84
2023-07-11T17:30:52.621Z,31.09
2023-07-11T17:33:26.015Z,31.54
2023-07-11T17:35:58.481Z,31.83
2023-07-11T17:38:31.779Z,32.54
2023-07-11T17:41:02.835Z,32.63
2023-07-11T17:43:36.366Z,32.97
2023-07-11T17:48:46.679Z,33.05
2023-07-11T17:51:18.195Z,32.98
2023-07-11T17:53:49.833Z,33.26
2023-07-11T17:56:21.612Z,32.96
2023-07-11T17:58:54.345Z,32.93
2023-07-11T18:01:25.624Z,32.63
2023-07-11T18:03:57.757Z,32.73
2023-07-11T18:06:29.033Z,32.16
2023-07-11T18:09:00.513Z,31.93
2023-07-11T18:11:31.708Z,31.91
2023-07-11T18:14:04.636Z,31.52
2023-07-11T18:16:38.557Z,31.74
2023-07-11T18:19:11.658Z,31.61
2023-07-11T18:21:44.174Z,31.31
2023-07-11T18:24:15.994Z,31.07
2023-07-11T18:26:47.406Z,30.92
2023-07-11T18:29:21.268Z,30.70
2023-07-11T18:31:53.272Z,30.85
2023-07-11T18:34:25.202Z,30.56
2023-07-11T18:37:02.187Z,30.35
2023-07-11T18:39:33.581Z,30.26
2023-07-11T18:42:05.749Z,29.82
2023-07-11T18:44:39.143Z,29.54
2023-07-11T18:47:20.440Z,29.29
2023-07-11T18:49:56.801Z,29.36
2023-07-11T18:52:30.757Z,29.33
2023-07-11T18:55:03.366Z,29.00
2023-07-11T18:57:37.253Z,28.58
2023-07-11T19:00:21.832Z,28.34
2023-07-11T19:02:53.704Z,28.06
2023-07-11T19:05:27.288Z,27.85
2023-07-11T19:07:58.706Z,27.70
2023-07-11T19:10:32.237Z,27.73
2023-07-11T19:13:03.930Z,27.71
2023-07-11T19:15:36.643Z,27.50
2023-07-11T19:18:09.744Z,27.36
2023-07-11T19:20:40.726Z,26.93
2023-07-11T19:23:15.431Z,26.82
2023-07-11T19:25:49.051Z,26.80
2023-07-11T19:28:20.656Z,26.74
2023-07-11T19:30:53.940Z,26.69
2023-07-11T19:33:22.686Z,26.55
2023-07-11T19:35:52.466Z,26.39
2023-07-11T19:38:23.261Z,26.53
2023-07-11T19:40:53.207Z,26.25
2023-07-11T19:43:21.798Z,26.17
2023-07-11T19:45:53.051Z,25.95
2023-07-11T19:48:22.839Z,25.95
2023-07-11T19:50:52.834Z,25.87
2023-07-11T19:53:22.935Z,25.60
2023-07-11T19:55:53.173Z,25.60
2023-07-11T19:58:23.783Z,25.61
2023-07-11T20:00:59.852Z,25.60
2023-07-11T20:03:31.771Z,25.59
2023-07-11T20:06:06.692Z,25.57
2023-07-11T20:08:36.018Z,25.38
2023-07-11T20:11:06.857Z,25.22
2023-07-11T20:13:36.371Z,25.26
2023-07-11T20:16:15.905Z,25.33
2023-07-11T20:18:46.933Z,25.22
2023-07-11T20:21:21.243Z,25.34
2023-07-11T20:23:52.342Z,25.15
2023-07-11T20:26:24.797Z,24.89
2023-07-11T20:28:55.587Z,24.83
2023-07-11T20:31:26.428Z,24.60
2023-07-11T20:33:55.560Z,24.59
2023-07-11T20:36:28.678Z,24.48
2023-07-11T20:39:00.780Z,24.46
2023-07-11T20:41:31.731Z,24.32
2023-07-11T20:44:02.619Z,24.26
2023-07-11T20:46:35.346Z,24.22
2023-07-11T20:49:06.352Z,24.27
2023-07-11T20:51:37.573Z,24.21
2023-07-11T20:54:09.151Z,24.29
2023-07-11T20:56:39.811Z,24.14
2023-07-11T20:59:13.755Z,24.33
2023-07-11T21:01:44.094Z,24.15
2023-07-11T21:04:12.722Z,24.15
2023-07-11T21:06:42.759Z,24.18
2023-07-11T21:09:15.012Z,24.21
2023-07-11T21:11:45.876Z,24.15
2023-07-11T21:14:14.558Z,24.32
2023-07-11T21:16:44.242Z,24.19
2023-07-11T21:19:22.388Z,24.06
2023-07-11T21:21:50.903Z,24.07
2023-07-11T21:24:19.148Z,24.08
2023-07-11T21:26:47.440Z,23.92
2023-07-11T21:29:16.037Z,23.84
2023-07-11T21:31:46.388Z,23.93
2023-07-11T21:34:15.114Z,24.07
2023-07-11T21:36:43.346Z,23.89
2023-07-11T21:39:15.022Z,24.02
2023-07-11T21:41:43.285Z,24.06
2023-07-11T21:44:13.306Z,24.09
2023-07-11T21:46:41.791Z,23.96
2023-07-11T21:49:11.998Z,23.90
2023-07-11T21:51:40.424Z,23.90
2023-07-11T21:54:08.733Z,23.71
2023-07-11T21:56:37.352Z,23.76
2023-07-11T21:59:05.778Z,23.78
2023-07-11T22:01:34.095Z,23.68
2023-07-11T22:04:04.369Z,23.62
2023-07-11T22:06:35.240Z,23.57
2023-07-11T22:09:03.629Z,23.61
2023-07-11T22:11:31.882Z,23.56
2023-07-11T22:14:00.081Z,23.66
2023-07-11T22:16:30.267Z,23.72
2023-07-11T22:18:58.944Z,23.53
2023-07-11T22:21:29.058Z,23.34
2023-07-11T22:23:59.046Z,23.23
2023-07-11T22:26:31.654Z,23.32
2023-07-11T22:29:02.596Z,23.13
2023-07-11T22:31:31.211Z,23.03
2023-07-11T22:33:59.636Z,23.14
2023-07-11T22:36:28.133Z,23.00
2023-07-11T22:38:56.370Z,22.96
2023-07-11T22:41:25.967Z,22.96
2023-07-11T22:43:54.268Z,22.90
2023-07-11T22:46:22.978Z,22.93
2023-07-11T22:48:51.507Z,22.90
2023-07-11T22:51:20.179Z,22.87
2023-07-11T22:53:48.945Z,22.85
2023-07-11T22:56:19.910Z,22.92
2023-07-11T22:58:50.241Z,22.92
2023-07-11T23:01:20.443Z,23.04
2023-07-11T23:03:49.018Z,22.99
2023-07-11T23:06:21.000Z,23.14
2023-07-11T23:08:50.001Z,23.00
2023-07-11T23:11:18.787Z,22.77
2023-07-11T23:13:47.565Z,22.74
2023-07-11T23:16:21.210Z,22.79
2023-07-11T23:18:49.661Z,22.67
2023-07-11T23:21:19.425Z,22.65
2023-07-11T23:23:47.735Z,22.73
2023-07-11T23:26:16.114Z,22.88
2023-07-11T23:28:44.343Z,22.85
2023-07-11T23:31:14.289Z,23.02
2023-07-11T23:33:44.253Z,23.09
2023-07-11T23:36:15.746Z,22.95
2023-07-11T23:38:44.525Z,22.73
2023-07-11T23:41:15.559Z,22.79
2023-07-11T23:43:46.021Z,22.57
2023-07-11T23:46:22.614Z,22.69
2023-07-11T23:48:52.718Z,22.75
2023-07-11T23:51:22.069Z,22.63
2023-07-11T23:53:50.816Z,22.87
2023-07-11T23:56:22.377Z,23.04
2023-07-11T23:58:51.569Z,23.07
